Time;durP1;ratioP1;P1;durP2;ratioP2;P2;SDS_P1;SDS_P2;PMS_P1;PMS_P2;Temp;Humidity;BMP_temperature;BMP_pressure;BME280_temperature;BME280_humidity;BME280_pressure;Samples;Min_cycle;Max_cycle;Signal;HPM_P1;HPM_P2
2022/10/10 00:09:13;;;;;;;16.25;3.47;;;;;;;;;;20590322;28;20047;-64
2022/10/10 00:19:15;;;;;;;9.25;2.50;;;;;;;;;;20590052;28;20054;-77
2022/10/10 00:29:17;;;;;;;8.85;2.55;;;;;;;;;;20606164;28;20558;-78
2022/10/10 00:39:20;;;;;;;11.77;2.88;;;;;;;;;;20606989;28;20059;-63
2022/10/10 00:49:26;;;;;;;11.20;2.53;;;;;;;;;;20628227;28;20058;-63
2022/10/10 00:59:30;;;;;;;13.82;2.88;;;;;;;;;;20603435;28;20047;-75
2022/10/10 01:09:33;;;;;;;11.77;2.63;;;;;;;;;;20621072;28;20078;-74
2022/10/10 01:19:52;;;;;;;10.38;3.13;;;;;;;;;;20620670;28;20051;-69
2022/10/10 01:30:07;;;;;;;11.40;2.78;;;;;;;;;;20608786;28;20043;-61
2022/10/10 01:40:16;;;;;;;13.30;3.13;;;;;;;;;;20611564;28;20061;-62
2022/10/10 01:50:26;;;;;;;12.32;2.60;;;;;;;;;;20610127;28;20450;-62
2022/10/10 02:00:55;;;;;;;10.32;2.40;;;;;;;;;;20593818;28;20050;-80
2022/10/10 02:11:14;;;;;;;8.38;2.97;;;;;;;;;;20597515;28;20554;-62
2022/10/10 02:21:31;;;;;;;13.90;3.30;;;;;;;;;;20593987;28;20093;-64
2022/10/10 02:31:56;;;;;;;12.32;3.17;;;;;;;;;;20591921;28;20053;-66
2022/10/10 02:41:59;;;;;;;11.60;2.65;;;;;;;;;;20552684;28;1237221;-78
2022/10/10 02:52:02;;;;;;;13.57;2.95;;;;;;;;;;20610063;28;20066;-63
2022/10/10 03:02:05;;;;;;;13.63;3.05;;;;;;;;;;20609865;28;20046;-62
2022/10/10 03:12:07;;;;;;;12.98;2.60;;;;;;;;;;20598691;28;20047;-63
2022/10/10 03:22:09;;;;;;;18.08;3.38;;;;;;;;;;20600921;28;20082;-64
2022/10/10 03:32:12;;;;;;;15.88;2.33;;;;;;;;;;20595194;28;20105;-70
2022/10/10 03:42:15;;;;;;;14.45;2.80;;;;;;;;;;20594836;28;20087;-62
2022/10/10 03:52:17;;;;;;;14.60;2.45;;;;;;;;;;20593598;28;20058;-62
2022/10/10 04:02:19;;;;;;;11.32;2.20;;;;;;;;;;20593062;28;20125;-79
2022/10/10 04:12:21;;;;;;;14.57;2.83;;;;;;;;;;20591085;28;20062;-64
2022/10/10 04:22:24;;;;;;;17.75;3.13;;;;;;;;;;20591246;28;20046;-80
2022/10/10 04:32:26;;;;;;;8.85;2.10;;;;;;;;;;20605502;28;20075;-66
2022/10/10 04:42:28;;;;;;;10.60;2.72;;;;;;;;;;20588783;28;20492;-62
2022/10/10 04:52:38;;;;;;;12.65;2.67;;;;;;;;;;20590505;28;20074;-63
2022/10/10 05:02:40;;;;;;;9.57;3.33;;;;;;;;;;20588397;28;20047;-62
2022/10/10 05:12:42;;;;;;;12.68;2.78;;;;;;;;;;20588293;28;20059;-63
2022/10/10 05:22:45;;;;;;;13.95;3.00;;;;;;;;;;20586742;28;20051;-61
2022/10/10 05:32:47;;;;;;;11.32;3.75;;;;;;;;;;20585943;28;20613;-79
2022/10/10 05:42:49;;;;;;;12.30;3.05;;;;;;;;;;20599831;28;20514;-63
2022/10/10 05:52:52;;;;;;;16.98;3.50;;;;;;;;;;20598621;28;20057;-64
2022/10/10 06:02:58;;;;;;;14.07;3.20;;;;;;;;;;20598188;28;20054;-63
2022/10/10 06:13:01;;;;;;;12.30;3.30;;;;;;;;;;20597798;28;20488;-78
2022/10/10 06:23:03;;;;;;;14.43;3.45;;;;;;;;;;20599002;28;20458;-70
2022/10/10 06:33:11;;;;;;;14.10;3.40;;;;;;;;;;20599345;28;20082;-79
2022/10/10 06:43:17;;;;;;;16.30;4.40;;;;;;;;;;20596094;28;20117;-65
2022/10/10 06:53:19;;;;;;;20.08;5.30;;;;;;;;;;20610356;28;20134;-67
2022/10/10 07:03:21;;;;;;;10.70;3.63;;;;;;;;;;20594363;28;20043;-73
2022/10/10 07:13:25;;;;;;;15.88;3.80;;;;;;;;;;20606115;28;20058;-62
2022/10/10 07:23:32;;;;;;;20.33;4.90;;;;;;;;;;20592828;28;20054;-76
2022/10/10 07:33:39;;;;;;;18.13;4.15;;;;;;;;;;20591396;28;20051;-62
2022/10/10 07:43:41;;;;;;;15.95;4.28;;;;;;;;;;20605164;28;20556;-76
2022/10/10 07:53:44;;;;;;;16.73;4.28;;;;;;;;;;20590424;28;20055;-77
2022/10/10 08:03:47;;;;;;;16.98;4.72;;;;;;;;;;20589688;28;20488;-79
2022/10/10 08:13:49;;;;;;;12.13;4.15;;;;;;;;;;20594096;28;20085;-79
2022/10/10 08:23:52;;;;;;;16.02;5.85;;;;;;;;;;20598927;28;20062;-78
2022/10/10 08:33:56;;;;;;;15.77;4.50;;;;;;;;;;20587714;28;20055;-78
2022/10/10 08:44:01;;;;;;;17.50;5.88;;;;;;;;;;20588252;28;20077;-78
2022/10/10 08:54:05;;;;;;;17.08;7.70;;;;;;;;;;20589992;28;20380;-71
2022/10/10 09:04:13;;;;;;;21.63;6.97;;;;;;;;;;20587160;28;20078;-63
2022/10/10 09:14:15;;;;;;;;;;;;;;;;;;20596731;28;20051;-80
2022/10/10 09:24:20;;;;;;;12.68;5.45;;;;;;;;;;20601667;28;19933;-65
2022/10/10 09:34:31;;;;;;;17.33;6.13;;;;;;;;;;20601000;28;20055;-72
2022/10/10 09:44:33;;;;;;;17.58;6.35;;;;;;;;;;20601915;28;20059;-63
2022/10/10 09:54:35;;;;;;;13.25;5.90;;;;;;;;;;20601802;28;20086;-78
2022/10/10 10:04:38;;;;;;;23.00;11.73;;;;;;;;;;20601687;28;20050;-68
2022/10/10 10:14:40;;;;;;;17.20;6.53;;;;;;;;;;20610315;28;20055;-70
2022/10/10 10:24:42;;;;;;;11.27;5.82;;;;;;;;;;20602636;28;20051;-66
2022/10/10 10:35:17;;;;;;;11.55;4.65;;;;;;;;;;20596566;28;20059;-74
2022/10/10 10:45:34;;;;;;;12.13;4.28;;;;;;;;;;20586168;28;20058;-73
2022/10/10 10:55:49;;;;;;;16.45;4.30;;;;;;;;;;20587295;28;20086;-73
2022/10/10 11:05:51;;;;;;;12.00;4.85;;;;;;;;;;20599601;28;20046;-79
2022/10/10 11:15:55;;;;;;;15.85;5.68;;;;;;;;;;20589107;28;20054;-78
2022/10/10 11:26:17;;;;;;;11.98;4.47;;;;;;;;;;20593706;28;20069;-81
2022/10/10 11:36:24;;;;;;;13.55;4.35;;;;;;;;;;20596575;28;20142;-79
2022/10/10 11:46:29;;;;;;;10.30;3.83;;;;;;;;;;20591350;28;20167;-68
2022/10/10 11:56:39;;;;;;;10.70;3.90;;;;;;;;;;20603507;28;20042;-63
2022/10/10 12:06:44;;;;;;;12.00;3.65;;;;;;;;;;20596450;28;20058;-70
2022/10/10 12:16:46;;;;;;;12.40;4.45;;;;;;;;;;20588992;28;20153;-77
2022/10/10 12:26:54;;;;;;;12.75;2.95;;;;;;;;;;20596551;28;20069;-80
2022/10/10 12:37:09;;;;;;;16.83;3.70;;;;;;;;;;20593533;28;20117;-80
2022/10/10 12:47:14;;;;;;;10.45;3.90;;;;;;;;;;20597939;28;20109;-63
2022/10/10 12:57:18;;;;;;;22.88;8.55;;;;;;;;;;20604006;28;20051;-62
2022/10/10 13:07:21;;;;;;;14.77;5.03;;;;;;;;;;20603074;28;20100;-66
2022/10/10 13:17:23;;;;;;;15.85;6.18;;;;;;;;;;20616899;28;20051;-63
2022/10/10 13:27:27;;;;;;;14.13;5.10;;;;;;;;;;20601599;28;20109;-65
2022/10/10 13:37:30;;;;;;;16.30;4.95;;;;;;;;;;20615952;28;20488;-64
2022/10/10 13:47:45;;;;;;;16.60;4.65;;;;;;;;;;20600336;28;20047;-62
2022/10/10 13:57:50;;;;;;;14.57;4.95;;;;;;;;;;20598465;28;20054;-79
2022/10/10 14:07:52;;;;;;;17.23;4.93;;;;;;;;;;20614263;28;20070;-79
2022/10/10 14:17:56;;;;;;;14.30;4.03;;;;;;;;;;20597002;28;20142;-62
2022/10/10 14:27:59;;;;;;;17.08;4.28;;;;;;;;;;20597037;28;20051;-62
2022/10/10 14:38:01;;;;;;;13.35;3.55;;;;;;;;;;20596551;28;20054;-79
2022/10/10 14:48:04;;;;;;;16.23;2.92;;;;;;;;;;20598701;28;20054;-61
2022/10/10 14:58:06;;;;;;;14.55;3.42;;;;;;;;;;20606010;28;20050;-75
2022/10/10 15:08:10;;;;;;;15.50;4.22;;;;;;;;;;20594396;28;20047;-61
2022/10/10 15:18:13;;;;;;;10.93;3.13;;;;;;;;;;20608112;28;20058;-76
2022/10/10 15:28:16;;;;;;;4.65;0.98;;;;;;;;;;20594549;28;20055;-75
2022/10/10 15:38:18;;;;;;;4.95;1.05;;;;;;;;;;20593702;28;20047;-76
2022/10/10 15:48:20;;;;;;;2.90;1.20;;;;;;;;;;20613260;28;20134;-77
2022/10/10 15:58:22;;;;;;;1.98;0.80;;;;;;;;;;20599124;28;20121;-78
2022/10/10 16:08:24;;;;;;;2.25;0.88;;;;;;;;;;20593428;28;20082;-80
2022/10/10 16:18:26;;;;;;;2.10;0.60;;;;;;;;;;20589332;28;20058;-65
2022/10/10 16:28:28;;;;;;;5.53;1.75;;;;;;;;;;20589022;28;20113;-79
2022/10/10 16:38:30;;;;;;;4.22;0.85;;;;;;;;;;20590056;28;20059;-70
2022/10/10 16:48:33;;;;;;;2.65;0.98;;;;;;;;;;20587876;28;20057;-62
2022/10/10 16:58:38;;;;;;;5.07;1.75;;;;;;;;;;20588430;28;20066;-67
2022/10/10 17:08:40;;;;;;;4.10;1.30;;;;;;;;;;20587108;28;20053;-78
2022/10/10 17:18:43;;;;;;;4.82;1.92;;;;;;;;;;20586223;28;20101;-79
2022/10/10 17:28:45;;;;;;;4.32;1.40;;;;;;;;;;20588087;28;20078;-65
2022/10/10 17:38:48;;;;;;;3.53;1.30;;;;;;;;;;20602281;28;20051;-75
2022/10/10 17:48:50;;;;;;;3.88;1.50;;;;;;;;;;20600807;28;20495;-75
2022/10/10 17:58:51;;;;;;;5.32;2.00;;;;;;;;;;20600812;28;20074;-62
2022/10/10 18:08:53;;;;;;;5.93;2.10;;;;;;;;;;20600324;28;20046;-67
2022/10/10 18:18:55;;;;;;;6.10;2.28;;;;;;;;;;20598915;28;20098;-66
2022/10/10 18:28:57;;;;;;;5.47;2.42;;;;;;;;;;20596761;28;20047;-65
2022/10/10 18:39:04;;;;;;;4.85;2.35;;;;;;;;;;20596944;28;20414;-69
2022/10/10 18:49:07;;;;;;;7.22;2.35;;;;;;;;;;20599905;28;20054;-74
2022/10/10 18:59:16;;;;;;;4.57;2.53;;;;;;;;;;20614156;28;20047;-63
2022/10/10 19:09:19;;;;;;;8.90;2.75;;;;;;;;;;20593737;28;20057;-76
2022/10/10 19:19:21;;;;;;;6.55;2.70;;;;;;;;;;20593815;28;20105;-62
2022/10/10 19:29:24;;;;;;;6.72;2.72;;;;;;;;;;20593764;28;20046;-63
2022/10/10 19:39:26;;;;;;;4.18;1.85;;;;;;;;;;20591928;28;20050;-64
2022/10/10 19:49:28;;;;;;;5.20;1.30;;;;;;;;;;20591672;28;20059;-77
2022/10/10 19:59:31;;;;;;;3.60;1.98;;;;;;;;;;20607663;28;20099;-79
2022/10/10 20:09:33;;;;;;;6.43;1.80;;;;;;;;;;20606109;28;20153;-80
2022/10/10 20:19:35;;;;;;;4.10;1.52;;;;;;;;;;20607194;28;20106;-81
2022/10/10 20:29:37;;;;;;;5.53;1.95;;;;;;;;;;20615137;28;20455;-64
2022/10/10 20:39:39;;;;;;;7.05;2.58;;;;;;;;;;20589495;28;20086;-63
2022/10/10 20:49:41;;;;;;;5.97;3.03;;;;;;;;;;20586801;28;20078;-63
2022/10/10 20:59:43;;;;;;;7.70;2.97;;;;;;;;;;20586206;28;20132;-62
2022/10/10 21:09:45;;;;;;;6.07;2.97;;;;;;;;;;20595403;28;20051;-62
2022/10/10 21:19:47;;;;;;;8.05;3.08;;;;;;;;;;20602666;28;20069;-62
2022/10/10 21:29:49;;;;;;;6.95;2.78;;;;;;;;;;20602640;28;20507;-62
2022/10/10 21:39:52;;;;;;;6.63;3.08;;;;;;;;;;20601536;28;20050;-62
2022/10/10 21:49:54;;;;;;;8.25;4.07;;;;;;;;;;20599122;28;20047;-61
2022/10/10 21:59:56;;;;;;;8.77;3.90;;;;;;;;;;20598236;28;20054;-62
2022/10/10 22:09:58;;;;;;;8.05;4.45;;;;;;;;;;20597969;28;20047;-63
2022/10/10 22:20:00;;;;;;;7.63;4.00;;;;;;;;;;20596406;28;20050;-66
2022/10/10 22:30:07;;;;;;;9.32;4.68;;;;;;;;;;20610955;28;20089;-70
2022/10/10 22:40:11;;;;;;;7.88;4.20;;;;;;;;;;20594907;28;20138;-63
2022/10/10 22:50:13;;;;;;;17.95;6.38;;;;;;;;;;20595363;28;20097;-61
2022/10/10 23:00:16;;;;;;;9.27;4.20;;;;;;;;;;20594182;28;20102;-63
2022/10/10 23:10:18;;;;;;;10.32;5.13;;;;;;;;;;20596661;28;20078;-77
2022/10/10 23:20:19;;;;;;;10.93;4.40;;;;;;;;;;20602745;28;20061;-70
2022/10/10 23:30:22;;;;;;;14.18;5.32;;;;;;;;;;20608740;28;20053;-63
2022/10/10 23:40:24;;;;;;;10.13;4.60;;;;;;;;;;20606882;28;20086;-63
2022/10/10 23:50:27;;;;;;;9.73;5.05;;;;;;;;;;20590570;28;20050;-62
